sensor_id;sensor_type;location;lat;lon;timestamp;pressure;altitude;pressure_sealevel;temperature;humidity
31162;BME280;17796;49.296;-117.656;2024-03-02T00:13:02;94700;;;6.25122;60.28702
31162;BME280;17796;49.296;-117.656;2024-03-02T00:28:06;94700;;;6.06035;61.47953
31162;BME280;17796;49.296;-117.656;2024-03-02T00:43:38;94700;;;5.7704;58.79872
31162;BME280;17796;49.296;-117.656;2024-03-02T00:58:46;94700;;;5.61414;59.35866
31162;BME280;17796;49.296;-117.656;2024-03-02T01:13:49;94700;;;5.77484;53.91397
31162;BME280;17796;49.296;-117.656;2024-03-02T01:28:53;94700;;;5.81613;61.71655
31162;BME280;17796;49.296;-117.656;2024-03-02T01:43:57;94600;;;5.75896;65.665
31162;BME280;17796;49.296;-117.656;2024-03-02T01:59:01;94600;;;5.24257;64.64975
31162;BME280;17796;49.296;-117.656;2024-03-02T02:14:06;94600;;;5.46647;64.08612
31162;BME280;17796;49.296;-117.656;2024-03-02T02:29:10;94700;;;5.32737;65.36541
31162;BME280;17796;49.296;-117.656;2024-03-02T02:44:13;94700;;;4.14566;78.1493
31162;BME280;17796;49.296;-117.656;2024-03-02T02:59:17;94600;;;3.79251;82.4212
31162;BME280;17796;49.296;-117.656;2024-03-02T03:14:21;94600;;;2.52793;93.75669
31162;BME280;17796;49.296;-117.656;2024-03-02T03:29:24;94600;;;3.00906;87.81048
31162;BME280;17796;49.296;-117.656;2024-03-02T03:44:29;94600;;;2.56731;91.90247
31162;BME280;17796;49.296;-117.656;2024-03-02T03:59:32;94700;;;2.02522;100.0
31162;BME280;17796;49.296;-117.656;2024-03-02T04:14:36;94700;;;1.38278;100.0
31162;BME280;17796;49.296;-117.656;2024-03-02T04:29:40;94700;;;2.37518;100.0
31162;BME280;17796;49.296;-117.656;2024-03-02T04:44:43;94600;;;2.1424;100.0
31162;BME280;17796;49.296;-117.656;2024-03-02T04:59:47;94700;;;1.6362;100.0
31162;BME280;17796;49.296;-117.656;2024-03-02T05:14:50;94700;;;1.71908;100.0
31162;BME280;17796;49.296;-117.656;2024-03-02T05:29:54;94700;;;1.43549;100.0
31162;BME280;17796;49.296;-117.656;2024-03-02T05:44:59;94700;;;1.70702;100.0
31162;BME280;17796;49.296;-117.656;2024-03-02T06:00:04;94700;;;2.04999;100.0
31162;BME280;17796;49.296;-117.656;2024-03-02T06:15:09;94700;;;2.34787;100.0
31162;BME280;17796;49.296;-117.656;2024-03-02T06:30:13;94600;;;2.15002;100.0
31162;BME280;17796;49.296;-117.656;2024-03-02T06:45:17;94600;;;2.10302;100.0
31162;BME280;17796;49.296;-117.656;2024-03-02T07:00:21;94600;;;1.92074;100.0
31162;BME280;17796;49.296;-117.656;2024-03-02T07:15:25;94600;;;0.26273;100.0
31162;BME280;17796;49.296;-117.656;2024-03-02T07:30:30;94600;;;0.85117;100.0
31162;BME280;17796;49.296;-117.656;2024-03-02T08:00:51;94600;;;0.49899;100.0
31162;BME280;17796;49.296;-117.656;2024-03-02T08:15:56;94600;;;1.99886;100.0
31162;BME280;17796;49.296;-117.656;2024-03-02T08:31:00;94600;;;0.97375;100.0
31162;BME280;17796;49.296;-117.656;2024-03-02T08:46:04;94600;;;1.47868;100.0
31162;BME280;17796;49.296;-117.656;2024-03-02T09:01:07;94600;;;1.35737;100.0
31162;BME280;17796;49.296;-117.656;2024-03-02T09:16:11;94600;;;1.38246;100.0
31162;BME280;17796;49.296;-117.656;2024-03-02T09:31:14;94500;;;1.55681;100.0
31162;BME280;17796;49.296;-117.656;2024-03-02T09:46:18;94500;;;1.48948;100.0
31162;BME280;17796;49.296;-117.656;2024-03-02T10:01:22;94500;;;0.90579;100.0
31162;BME280;17796;49.296;-117.656;2024-03-02T10:16:26;94500;;;1.39104;100.0
31162;BME280;17796;49.296;-117.656;2024-03-02T10:31:30;94500;;;0.14713;100.0
31162;BME280;17796;49.296;-117.656;2024-03-02T10:46:36;94400;;;1.21097;100.0
31162;BME280;17796;49.296;-117.656;2024-03-02T11:01:40;94400;;;1.55014;100.0
31162;BME280;17796;49.296;-117.656;2024-03-02T11:16:49;94400;;;0.89373;100.0
31162;BME280;17796;49.296;-117.656;2024-03-02T11:47:18;94300;;;1.10396;100.0
31162;BME280;17796;49.296;-117.656;2024-03-02T12:02:33;94300;;;-0.38923;100.0
31162;BME280;17796;49.296;-117.656;2024-03-02T12:17:37;94300;;;1.48122;100.0
31162;BME280;17796;49.296;-117.656;2024-03-02T12:32:41;94300;;;0.76448;100.0
31162;BME280;17796;49.296;-117.656;2024-03-02T12:47:45;94300;;;0.86832;100.0
31162;BME280;17796;49.296;-117.656;2024-03-02T13:02:48;94200;;;0.67588;100.0
31162;BME280;17796;49.296;-117.656;2024-03-02T13:17:53;94300;;;0.11093;100.0
31162;BME280;17796;49.296;-117.656;2024-03-02T13:33:00;94200;;;1.19859;100.0
31162;BME280;17796;49.296;-117.656;2024-03-02T13:48:04;94200;;;-0.22124;100.0
31162;BME280;17796;49.296;-117.656;2024-03-02T14:03:08;94100;;;-0.59501;100.0
31162;BME280;17796;49.296;-117.656;2024-03-02T14:18:12;94100;;;-0.56897;100.0
31162;BME280;17796;49.296;-117.656;2024-03-02T14:33:16;94100;;;0.26336;100.0
31162;BME280;17796;49.296;-117.656;2024-03-02T14:48:20;94100;;;-0.0199;100.0
31162;BME280;17796;49.296;-117.656;2024-03-02T15:03:24;94100;;;-0.14756;100.0
31162;BME280;17796;49.296;-117.656;2024-03-02T15:18:28;94100;;;1.12682;100.0
31162;BME280;17796;49.296;-117.656;2024-03-02T15:33:31;94100;;;1.64763;100.0
31162;BME280;17796;49.296;-117.656;2024-03-02T15:48:35;94100;;;1.67462;100.0
31162;BME280;17796;49.296;-117.656;2024-03-02T16:03:39;94100;;;1.25512;100.0
31162;BME280;17796;49.296;-117.656;2024-03-02T16:18:43;94000;;;1.02679;100.0
31162;BME280;17796;49.296;-117.656;2024-03-02T16:33:47;94000;;;0.87467;100.0
31162;BME280;17796;49.296;-117.656;2024-03-02T16:48:52;94000;;;0.65968;100.0
31162;BME280;17796;49.296;-117.656;2024-03-02T17:03:56;94000;;;0.65714;100.0
31162;BME280;17796;49.296;-117.656;2024-03-02T17:19:00;94000;;;0.85308;100.0
31162;BME280;17796;49.296;-117.656;2024-03-02T17:34:04;94000;;;0.09855;100.0
31162;BME280;17796;49.296;-117.656;2024-03-02T17:49:07;94000;;;0.41198;100.0
31162;BME280;17796;49.296;-117.656;2024-03-02T18:04:11;94000;;;0.36403;100.0
31162;BME280;17796;49.296;-117.656;2024-03-02T18:19:15;94000;;;0.74892;100.0
31162;BME280;17796;49.296;-117.656;2024-03-02T18:34:19;94000;;;0.88865;100.0
31162;BME280;17796;49.296;-117.656;2024-03-02T18:49:22;94000;;;1.06902;100.0
31162;BME280;17796;49.296;-117.656;2024-03-02T19:04:26;94000;;;1.00011;100.0
31162;BME280;17796;49.296;-117.656;2024-03-02T19:19:30;94100;;;1.27925;100.0
31162;BME280;17796;49.296;-117.656;2024-03-02T19:34:35;94100;;;1.1916;100.0
31162;BME280;17796;49.296;-117.656;2024-03-02T19:49:38;94100;;;1.6381;100.0
31162;BME280;17796;49.296;-117.656;2024-03-02T20:04:42;94100;;;1.13698;100.0
31162;BME280;17796;49.296;-117.656;2024-03-02T20:19:46;94100;;;1.92201;100.0
31162;BME280;17796;49.296;-117.656;2024-03-02T20:34:50;94200;;;2.23418;100.0
31162;BME280;17796;49.296;-117.656;2024-03-02T20:49:54;94200;;;2.07444;100.0
31162;BME280;17796;49.296;-117.656;2024-03-02T21:04:57;94200;;;2.305;100.0
31162;BME280;17796;49.296;-117.656;2024-03-02T21:20:01;94200;;;2.27801;100.0
31162;BME280;17796;49.296;-117.656;2024-03-02T21:35:06;94200;;;2.32056;100.0
31162;BME280;17796;49.296;-117.656;2024-03-02T21:50:10;94200;;;2.02427;100.0
31162;BME280;17796;49.296;-117.656;2024-03-02T22:05:14;94200;;;1.72099;100.0
31162;BME280;17796;49.296;-117.656;2024-03-02T22:20:18;94300;;;2.45076;100.0
31162;BME280;17796;49.296;-117.656;2024-03-02T22:35:23;94300;;;1.5965;100.0
31162;BME280;17796;49.296;-117.656;2024-03-02T22:50:27;94300;;;1.18525;100.0
31162;BME280;17796;49.296;-117.656;2024-03-02T23:05:31;94300;;;1.6073;100.0
31162;BME280;17796;49.296;-117.656;2024-03-02T23:20:35;94300;;;1.43518;100.0
31162;BME280;17796;49.296;-117.656;2024-03-02T23:35:38;94300;;;1.54188;100.0
31162;BME280;17796;49.296;-117.656;2024-03-02T23:50:42;94300;;;1.82134;100.0
